KBTM/BTM METAR and TAF weather

Enter ICAO airport designator
Station Type Date Time Source
KBTM METAR 2018/12/10 16:53 UTC NOAA

KBTM 101653Z AUTO 00000KT 10SM FEW120 M10/M13 A3010 RMK AO2 SLP274 T11001133


Station Type Date Time Source
KBTM Decoded METAR 2018/12/10 16:53 UTC NOAA

BERT MOONEY AIRPORT, MT, United States (KBTM) 45-58N 112-30W 1688M
Dec 10, 2018 - 11:53 AM EST / 2018.12.10 1653 UTC
Wind: Calm:0
Visibility: 10 mile(s):0
Sky conditions: mostly clear
Temperature: 14.0 F (-10.0 C)
Dew Point: 8.1 F (-13.3 C)
Relative Humidity: 76%
Pressure (altimeter): 30.1 in. Hg (1019 hPa)
ob: KBTM 101653Z AUTO 00000KT 10SM FEW120 M10/M13 A3010 RMK AO2 SLP274 T11001133
cycle: 17

Station Type Date Time Source
KBTM TAF 2018/12/10 18:22 UTC NOAA

TAF KBTM 101720Z 1018/1118 00000KT P6SM BKN150
FM102100 29004KT P6SM VCSH SCT030 OVC050
FM110800 20004KT P6SM SCT050 OVC100


Example: see airport list